Time;durP1;ratioP1;P1;durP2;ratioP2;P2;SDS_P1;SDS_P2;PMS_P1;PMS_P2;Temp;Humidity;BMP_temperature;BMP_pressure;BME280_temperature;BME280_humidity;BME280_pressure;Samples;Min_cycle;Max_cycle;Signal;HPM_P1;HPM_P2
2021/01/03 00:01:50;;;;;;;28.13;13.53;;;5.10;99.90;;;;;;5013825;28;20229;-75
2021/01/03 00:04:16;;;;;;;32.10;13.20;;;5.10;99.90;;;;;;5015762;28;20224;-75
2021/01/03 00:06:43;;;;;;;31.13;14.97;;;5.20;99.90;;;;;;5014443;28;20213;-75
2021/01/03 00:09:10;;;;;;;28.97;13.10;;;5.20;99.90;;;;;;5011330;28;21440;-72
2021/01/03 00:11:37;;;;;;;27.70;14.27;;;5.10;99.90;;;;;;5014518;28;20243;-72
2021/01/03 00:14:05;;;;;;;33.47;13.03;;;5.20;99.90;;;;;;5016430;28;20575;-73
2021/01/03 00:16:31;;;;;;;33.50;13.90;;;5.20;99.90;;;;;;5015117;28;20628;-73
2021/01/03 00:18:58;;;;;;;25.53;14.00;;;5.20;99.90;;;;;;5015282;28;20280;-72
2021/01/03 00:21:25;;;;;;;35.60;13.53;;;5.20;99.90;;;;;;5018882;28;20203;-73
2021/01/03 00:23:52;;;;;;;33.23;13.90;;;5.20;99.90;;;;;;5015632;28;20351;-73
2021/01/03 00:26:18;;;;;;;31.40;14.60;;;5.10;99.90;;;;;;5013528;28;20685;-73
2021/01/03 00:28:44;;;;;;;29.50;13.00;;;5.10;99.90;;;;;;5014215;28;20206;-73
2021/01/03 00:31:11;;;;;;;26.53;13.13;;;5.10;99.90;;;;;;5012020;28;20310;-72
2021/01/03 00:33:37;;;;;;;30.03;14.20;;;5.00;99.90;;;;;;5014527;28;20204;-71
2021/01/03 00:36:05;;;;;;;31.83;11.60;;;5.10;99.90;;;;;;5027238;28;20202;-71
2021/01/03 00:38:32;;;;;;;32.67;12.83;;;5.20;99.90;;;;;;5014396;28;20268;-71
2021/01/03 00:40:58;;;;;;;28.10;12.93;;;5.20;99.90;;;;;;4998296;28;20629;-71
2021/01/03 00:43:26;;;;;;;29.57;13.10;;;5.00;99.90;;;;;;5012404;28;20248;-71
2021/01/03 00:45:52;;;;;;;30.70;14.30;;;5.00;99.90;;;;;;5013391;28;20241;-71
2021/01/03 00:48:19;;;;;;;31.97;14.40;;;5.00;99.90;;;;;;5015960;28;20688;-72
2021/01/03 00:50:45;;;;;;;33.77;13.97;;;5.00;99.90;;;;;;5013919;28;20238;-71
2021/01/03 00:53:12;;;;;;;32.90;13.33;;;5.00;99.90;;;;;;5018177;28;20289;-71
2021/01/03 00:55:38;;;;;;;37.37;13.90;;;5.10;99.90;;;;;;5014139;28;20222;-71
2021/01/03 00:58:04;;;;;;;34.57;13.67;;;5.10;99.90;;;;;;5027257;28;20269;-70
2021/01/03 01:00:33;;;;;;;30.50;12.90;;;5.00;99.90;;;;;;5016448;28;20251;-71
2021/01/03 01:03:01;;;;;;;34.23;14.53;;;5.00;99.90;;;;;;5015661;28;20207;-71
2021/01/03 01:05:28;;;;;;;39.57;14.30;;;5.20;99.90;;;;;;5028896;28;20567;-72
2021/01/03 01:07:54;;;;;;;28.60;12.57;;;5.00;99.90;;;;;;5019039;28;20310;-71
2021/01/03 01:10:26;;;;;;;29.57;12.70;;;4.90;99.90;;;;;;5013102;28;20248;-71
2021/01/03 01:12:55;;;;;;;27.87;12.70;;;4.90;99.90;;;;;;5015148;28;20205;-71
2021/01/03 01:15:29;;;;;;;28.73;12.80;;;4.80;99.90;;;;;;5013694;28;20238;-70
2021/01/03 01:17:58;;;;;;;30.27;13.33;;;4.80;99.90;;;;;;5014576;28;20268;-71
2021/01/03 01:20:27;;;;;;;30.50;13.67;;;5.00;99.90;;;;;;5026260;28;20284;-71
2021/01/03 01:22:54;;;;;;;30.47;14.07;;;5.00;99.90;;;;;;5019285;28;20539;-71
2021/01/03 01:25:25;;;;;;;34.40;15.60;;;4.90;99.90;;;;;;5015450;28;20204;-71
2021/01/03 01:27:52;;;;;;;32.90;14.57;;;4.70;99.90;;;;;;5019300;28;20248;-71
2021/01/03 01:30:19;;;;;;;41.33;14.00;;;4.70;99.90;;;;;;5014657;28;20345;-71
2021/01/03 01:32:46;;;;;;;35.13;13.57;;;4.80;99.90;;;;;;5015785;28;20213;-71
2021/01/03 01:35:17;;;;;;;36.13;15.93;;;4.80;99.90;;;;;;5019128;28;20205;-72
2021/01/03 01:37:44;;;;;;;39.20;15.37;;;4.70;99.90;;;;;;5029447;28;20307;-72
2021/01/03 01:40:12;;;;;;;34.30;14.80;;;4.90;99.90;;;;;;5010126;28;20287;-71
2021/01/03 01:42:38;;;;;;;43.40;15.63;;;4.80;99.90;;;;;;5015786;28;20224;-71
2021/01/03 01:45:11;;;;;;;42.03;15.77;;;4.70;99.90;;;;;;5014586;28;20189;-72
2021/01/03 01:47:40;;;;;;;35.27;15.27;;;4.80;99.90;;;;;;5030584;28;20331;-72
2021/01/03 01:50:10;;;;;;;35.17;14.57;;;4.80;99.90;;;;;;5011118;28;20300;-71
2021/01/03 01:52:44;;;;;;;38.97;16.20;;;4.90;99.90;;;;;;5013023;28;20330;-71
2021/01/03 01:55:17;;;;;;;36.63;14.87;;;4.80;99.90;;;;;;5016431;28;20209;-71
2021/01/03 01:58:01;;;;;;;35.37;15.23;;;4.80;99.90;;;;;;5015224;28;20242;-73
2021/01/03 02:00:31;;;;;;;36.20;14.97;;;5.00;99.90;;;;;;5011428;28;20648;-72
2021/01/03 02:03:05;;;;;;;35.77;12.13;;;5.00;99.90;;;;;;5013400;28;20290;-71
2021/01/03 02:05:39;;;;;;;29.67;13.27;;;4.90;99.90;;;;;;5012255;28;20534;-71
2021/01/03 02:08:29;;;;;;;29.63;12.77;;;4.80;99.90;;;;;;5012108;28;20204;-71
2021/01/03 02:10:56;;;;;;;33.73;13.47;;;4.60;99.90;;;;;;5009577;28;20200;-71
2021/01/03 02:13:33;;;;;;;30.77;12.80;;;4.50;99.90;;;;;;5012562;28;20237;-71
2021/01/03 02:16:12;;;;;;;31.77;13.43;;;4.50;99.90;;;;;;5010505;28;20329;-71
2021/01/03 02:18:39;;;;;;;28.53;12.47;;;4.70;99.90;;;;;;5013553;28;20276;-71
2021/01/03 02:21:14;;;;;;;25.07;11.10;;;4.60;99.90;;;;;;5013327;28;20302;-73
2021/01/03 02:24:11;;;;;;;27.17;12.20;;;4.60;99.90;;;;;;5015355;28;20275;-72
2021/01/03 02:26:41;;;;;;;28.77;12.47;;;4.60;99.90;;;;;;5014843;28;20201;-71
2021/01/03 02:29:12;;;;;;;38.00;13.90;;;4.40;99.90;;;;;;5014549;28;20292;-71
2021/01/03 02:31:46;;;;;;;28.33;12.43;;;4.40;99.90;;;;;;5030458;28;20640;-71
2021/01/03 02:34:20;;;;;;;33.73;13.43;;;4.40;99.90;;;;;;5045350;28;20559;-72
2021/01/03 02:37:02;;;;;;;30.77;13.50;;;4.40;99.90;;;;;;5017061;28;20324;-71
2021/01/03 02:39:42;;;;;;;34.37;12.83;;;4.60;99.90;;;;;;5020647;28;20208;-72
2021/01/03 02:42:23;;;;;;;31.40;13.30;;;4.50;99.90;;;;;;5024921;28;20266;-71
2021/01/03 02:44:49;;;;;;;32.20;13.70;;;4.80;99.90;;;;;;5014370;28;20222;-71
2021/01/03 02:47:16;;;;;;;40.83;15.37;;;4.80;99.90;;;;;;5014462;28;20204;-72
2021/01/03 02:49:43;;;;;;;40.53;14.73;;;4.70;99.90;;;;;;5008954;28;20225;-72
2021/01/03 02:52:13;;;;;;;36.13;14.20;;;4.80;99.90;;;;;;5013644;28;20205;-72
2021/01/03 02:54:39;;;;;;;44.37;15.50;;;4.70;99.90;;;;;;5011587;28;20265;-71
2021/01/03 02:57:06;;;;;;;42.43;17.13;;;4.60;99.90;;;;;;4999487;28;20236;-71
2021/01/03 02:59:32;;;;;;;37.67;15.47;;;4.60;99.90;;;;;;5014929;28;20198;-71
2021/01/03 03:01:58;;;;;;;37.43;16.63;;;4.60;99.90;;;;;;4997686;28;20213;-72
2021/01/03 03:04:25;;;;;;;36.40;15.73;;;4.80;99.90;;;;;;5025764;28;21645;-72
2021/01/03 03:06:52;;;;;;;44.90;17.03;;;4.80;99.90;;;;;;5011477;28;20214;-72
2021/01/03 03:09:18;;;;;;;40.17;14.63;;;4.80;99.90;;;;;;5010943;28;20208;-71
2021/01/03 03:11:46;;;;;;;59.20;17.43;;;4.80;99.90;;;;;;5013138;28;20294;-71
2021/01/03 03:14:12;;;;;;;44.97;16.73;;;4.90;99.90;;;;;;5013571;28;20312;-71
2021/01/03 03:16:39;;;;;;;49.80;17.70;;;4.70;99.90;;;;;;5011952;28;20656;-71
2021/01/03 03:19:06;;;;;;;41.27;15.40;;;4.50;99.90;;;;;;5012925;28;20599;-72
2021/01/03 03:21:32;;;;;;;43.13;16.10;;;4.60;99.90;;;;;;5020427;28;20196;-71
2021/01/03 03:23:59;;;;;;;37.70;15.27;;;4.60;99.90;;;;;;5000313;28;20296;-71
2021/01/03 03:26:26;;;;;;;39.37;15.47;;;4.70;99.90;;;;;;5015981;28;20274;-71
2021/01/03 03:28:52;;;;;;;30.20;13.03;;;4.90;99.90;;;;;;5019762;28;20842;-71
2021/01/03 03:31:26;;;;;;;37.73;14.90;;;4.90;99.90;;;;;;5014479;28;20303;-71
2021/01/03 03:33:52;;;;;;;39.53;14.43;;;4.90;99.90;;;;;;5031396;28;20301;-72
2021/01/03 03:36:18;;;;;;;29.50;13.13;;;5.00;99.90;;;;;;5013808;28;20206;-71
2021/01/03 03:38:45;;;;;;;33.43;12.47;;;5.00;99.90;;;;;;5016793;28;20278;-71
2021/01/03 03:41:20;;;;;;;35.27;13.67;;;5.10;99.90;;;;;;5013485;28;20299;-72
2021/01/03 03:43:48;;;;;;;32.97;14.00;;;5.00;99.90;;;;;;5020750;28;20224;-71
2021/01/03 03:46:14;;;;;;;33.20;14.37;;;4.90;99.90;;;;;;5017040;28;20283;-71
2021/01/03 03:48:41;;;;;;;41.27;14.93;;;4.90;99.90;;;;;;5013155;28;20199;-72
2021/01/03 03:51:08;;;;;;;39.83;14.77;;;4.90;99.90;;;;;;5016770;28;20232;-72
2021/01/03 03:53:34;;;;;;;41.37;15.53;;;4.90;99.90;;;;;;5015715;28;20210;-71
2021/01/03 03:56:00;;;;;;;35.80;16.13;;;5.00;99.90;;;;;;5013324;28;20200;-72
2021/01/03 03:58:27;;;;;;;43.97;15.20;;;4.90;99.90;;;;;;5015569;28;20217;-71
2021/01/03 04:00:53;;;;;;;40.83;16.33;;;5.00;99.90;;;;;;5026398;28;20256;-71
2021/01/03 04:03:20;;;;;;;44.43;16.13;;;5.10;99.90;;;;;;5014709;28;20256;-71
2021/01/03 04:05:47;;;;;;;41.83;14.97;;;5.10;99.90;;;;;;5012561;28;21254;-71
2021/01/03 04:08:14;;;;;;;40.50;15.10;;;5.20;99.90;;;;;;5011809;28;20599;-71
2021/01/03 04:10:41;;;;;;;37.57;16.43;;;5.00;99.90;;;;;;5013934;28;20484;-72
2021/01/03 04:13:08;;;;;;;37.47;15.73;;;5.00;99.90;;;;;;5018499;28;20251;-71
2021/01/03 04:15:36;;;;;;;37.20;14.33;;;5.10;99.90;;;;;;5016949;28;20368;-71
2021/01/03 04:18:04;;;;;;;34.00;14.93;;;5.00;99.90;;;;;;5013551;28;20238;-71
2021/01/03 04:20:30;;;;;;;37.47;15.43;;;4.90;99.90;;;;;;5027998;28;20743;-72
2021/01/03 04:22:56;;;;;;;29.97;13.67;;;4.90;99.90;;;;;;5015892;28;20300;-71
2021/01/03 04:25:23;;;;;;;30.60;13.03;;;4.90;99.90;;;;;;5015243;28;20344;-72
2021/01/03 04:27:52;;;;;;;32.03;12.93;;;4.90;99.90;;;;;;5015863;28;20576;-71
2021/01/03 04:30:20;;;;;;;32.37;13.80;;;4.90;99.90;;;;;;5030566;28;20268;-72
2021/01/03 04:32:46;;;;;;;29.17;13.27;;;4.90;99.90;;;;;;5014500;28;20221;-71
2021/01/03 04:35:14;;;;;;;29.83;13.87;;;4.90;99.90;;;;;;5001932;28;20285;-71
2021/01/03 04:37:40;;;;;;;34.90;13.37;;;5.00;99.90;;;;;;5016230;28;20212;-71
2021/01/03 04:40:18;;;;;;;33.40;14.10;;;5.10;99.90;;;;;;5014667;28;20220;-71
2021/01/03 04:42:50;;;;;;;30.67;13.07;;;4.90;99.90;;;;;;5013706;28;20714;-71
2021/01/03 04:45:26;;;;;;;34.00;12.63;;;5.00;99.90;;;;;;5014635;28;20259;-71
2021/01/03 04:48:07;;;;;;;34.73;13.80;;;4.80;99.90;;;;;;5014633;28;20226;-71
2021/01/03 04:50:54;;;;;;;32.50;13.47;;;4.80;99.90;;;;;;5013496;28;20258;-72
2021/01/03 04:53:51;;;;;;;39.63;14.97;;;4.80;99.90;;;;;;5026547;28;20212;-72
2021/01/03 04:56:31;;;;;;;30.07;13.37;;;5.00;99.90;;;;;;5027078;28;20212;-72
2021/01/03 04:59:25;;;;;;;36.33;14.23;;;4.90;99.90;;;;;;5014084;28;20223;-71
2021/01/03 05:02:16;;;;;;;35.30;14.63;;;4.90;99.90;;;;;;5015838;28;20220;-72
2021/01/03 05:04:54;;;;;;;28.07;14.17;;;4.90;99.90;;;;;;5025437;28;20241;-71
2021/01/03 05:07:41;;;;;;;30.33;14.13;;;4.80;99.90;;;;;;5019508;28;20236;-71
2021/01/03 05:10:23;;;;;;;41.93;13.90;;;4.80;99.90;;;;;;5014312;28;20676;-71
2021/01/03 05:13:05;;;;;;;35.87;15.10;;;4.90;99.90;;;;;;5014193;28;20306;-71
2021/01/03 05:15:34;;;;;;;39.53;13.67;;;5.00;99.90;;;;;;5026743;28;20355;-72
2021/01/03 05:18:02;;;;;;;40.10;15.37;;;5.00;99.90;;;;;;5014187;28;20229;-71
2021/01/03 05:20:28;;;;;;;32.50;14.07;;;4.90;99.90;;;;;;5027488;28;20236;-72
2021/01/03 05:23:13;;;;;;;35.13;13.93;;;5.00;99.90;;;;;;5017401;28;20192;-72
2021/01/03 05:25:44;;;;;;;33.50;12.63;;;5.00;99.90;;;;;;5012072;28;20238;-71
2021/01/03 05:28:34;;;;;;;33.60;14.00;;;5.00;99.90;;;;;;5018771;28;20229;-71
2021/01/03 05:31:18;;;;;;;33.10;15.63;;;4.80;99.90;;;;;;5016315;28;20257;-71
2021/01/03 05:33:50;;;;;;;30.30;14.40;;;4.90;99.90;;;;;;5013751;28;20571;-71
2021/01/03 05:36:31;;;;;;;29.27;14.83;;;5.00;99.90;;;;;;5025008;28;20707;-72
2021/01/03 05:38:57;;;;;;;40.57;14.63;;;5.00;99.90;;;;;;5015083;28;20220;-71
2021/01/03 05:41:33;;;;;;;35.13;15.27;;;5.00;99.90;;;;;;5014655;28;20224;-71
2021/01/03 05:44:11;;;;;;;37.43;14.43;;;5.10;99.90;;;;;;5029382;28;20250;-71
2021/01/03 05:46:46;;;;;;;38.07;16.97;;;5.00;99.90;;;;;;5014400;28;20223;-71
2021/01/03 05:49:25;;;;;;;38.57;15.13;;;5.00;99.90;;;;;;5012047;28;20216;-72
2021/01/03 05:52:19;;;;;;;42.23;18.30;;;4.90;99.90;;;;;;5013430;28;20303;-72
2021/01/03 05:54:47;;;;;;;35.40;15.77;;;5.00;99.90;;;;;;5017683;28;20312;-71
2021/01/03 05:57:29;;;;;;;36.43;15.80;;;5.10;99.90;;;;;;5013237;28;20283;-71
2021/01/03 05:59:56;;;;;;;38.43;16.53;;;5.20;99.90;;;;;;5015816;28;20274;-72
2021/01/03 06:02:25;;;;;;;42.57;16.43;;;5.20;99.90;;;;;;4993669;28;20687;-71
2021/01/03 06:05:23;;;;;;;35.67;14.43;;;5.20;99.90;;;;;;5013604;28;20716;-71
2021/01/03 06:08:12;;;;;;;36.80;14.50;;;5.00;99.90;;;;;;5019034;28;20229;-71
2021/01/03 06:10:40;;;;;;;35.80;15.63;;;5.00;99.90;;;;;;5011125;28;20230;-72
2021/01/03 06:13:09;;;;;;;39.40;16.03;;;5.10;99.90;;;;;;5008117;28;20215;-72
2021/01/03 06:15:58;;;;;;;35.80;14.93;;;5.00;99.90;;;;;;5015143;28;20228;-72
2021/01/03 06:18:38;;;;;;;39.87;16.33;;;4.90;99.90;;;;;;5010752;28;20255;-71
2021/01/03 06:21:05;;;;;;;40.80;18.03;;;4.80;99.90;;;;;;5014429;28;20208;-71
2021/01/03 06:23:41;;;;;;;38.30;15.37;;;5.00;99.90;;;;;;5012896;28;20568;-71
2021/01/03 06:26:20;;;;;;;41.37;16.10;;;4.90;99.90;;;;;;5011025;28;20206;-71
2021/01/03 06:28:52;;;;;;;35.43;15.43;;;4.90;99.90;;;;;;5013394;28;20303;-71
2021/01/03 06:31:28;;;;;;;33.50;14.60;;;5.00;99.90;;;;;;5015841;28;20233;-71
2021/01/03 06:34:32;;;;;;;32.33;14.37;;;5.00;99.90;;;;;;5015725;28;20313;-71
2021/01/03 06:37:21;;;;;;;33.60;14.63;;;4.90;99.90;;;;;;5024867;28;20263;-71
2021/01/03 06:40:14;;;;;;;32.17;14.57;;;4.90;99.90;;;;;;5012446;28;20212;-71
2021/01/03 06:42:43;;;;;;;32.50;14.00;;;4.80;99.90;;;;;;5012561;28;20228;-71
2021/01/03 06:45:12;;;;;;;31.27;14.27;;;4.70;99.90;;;;;;5028384;28;20213;-71
2021/01/03 06:47:48;;;;;;;37.77;14.17;;;4.70;99.90;;;;;;5011862;28;20596;-71
2021/01/03 06:50:42;;;;;;;35.67;14.40;;;4.70;99.90;;;;;;5013138;28;20235;-71
2021/01/03 06:53:36;;;;;;;34.60;13.13;;;4.70;99.90;;;;;;5013393;28;20205;-71
2021/01/03 06:56:27;;;;;;;32.83;13.83;;;4.60;99.90;;;;;;5025441;28;20308;-72
2021/01/03 06:59:18;;;;;;;32.77;15.50;;;4.70;99.90;;;;;;5011427;28;20228;-71
2021/01/03 07:01:44;;;;;;;35.13;13.77;;;4.70;99.90;;;;;;5007664;28;20216;-72
2021/01/03 07:04:15;;;;;;;28.70;12.57;;;4.70;99.90;;;;;;5011518;28;20325;-71
2021/01/03 07:06:45;;;;;;;36.80;14.50;;;4.80;99.90;;;;;;5012175;28;20215;-71
2021/01/03 07:09:14;;;;;;;33.27;15.17;;;4.70;99.90;;;;;;5010154;28;20321;-71
2021/01/03 07:11:40;;;;;;;36.27;15.00;;;4.70;99.90;;;;;;5014510;28;20235;-71
2021/01/03 07:14:09;;;;;;;32.10;14.30;;;4.60;99.90;;;;;;5010480;28;20211;-70
2021/01/03 07:16:59;;;;;;;29.47;13.50;;;4.50;99.90;;;;;;5013840;28;20298;-71
2021/01/03 07:19:55;;;;;;;37.10;13.97;;;4.60;99.90;;;;;;5012589;28;20221;-71
2021/01/03 07:22:23;;;;;;;31.20;13.97;;;4.60;99.90;;;;;;5011093;28;20668;-71
2021/01/03 07:25:15;;;;;;;33.00;14.00;;;4.60;99.90;;;;;;5014396;28;20196;-71
2021/01/03 07:27:52;;;;;;;40.90;16.07;;;4.60;99.90;;;;;;5012548;28;20672;-71
2021/01/03 07:30:29;;;;;;;34.37;15.57;;;4.50;99.90;;;;;;5013336;28;20331;-71
2021/01/03 07:33:14;;;;;;;36.07;14.37;;;4.70;99.90;;;;;;5025490;28;20224;-71
2021/01/03 07:35:41;;;;;;;39.63;15.23;;;4.70;99.90;;;;;;5014566;28;20979;-71
2021/01/03 07:38:29;;;;;;;31.57;14.27;;;4.60;99.90;;;;;;5000152;28;20218;-71
2021/01/03 07:41:05;;;;;;;39.07;16.00;;;4.60;99.90;;;;;;5011533;28;20201;-71
2021/01/03 07:43:58;;;;;;;36.03;14.63;;;4.60;99.90;;;;;;5013091;28;20220;-73
2021/01/03 07:46:52;;;;;;;36.63;15.07;;;4.50;99.90;;;;;;5012446;28;20216;-71
2021/01/03 07:49:33;;;;;;;36.03;15.50;;;4.50;99.90;;;;;;5024882;28;20268;-71
2021/01/03 07:52:02;;;;;;;39.70;16.50;;;4.50;99.90;;;;;;5014200;28;20270;-70
2021/01/03 07:54:29;;;;;;;33.43;14.30;;;4.60;99.90;;;;;;5012792;28;20220;-71
2021/01/03 07:56:55;;;;;;;32.57;15.77;;;4.50;99.90;;;;;;5014006;28;20227;-71
2021/01/03 07:59:21;;;;;;;35.20;14.60;;;4.60;99.90;;;;;;5012722;28;20629;-71
2021/01/03 08:01:51;;;;;;;35.70;15.20;;;4.70;99.90;;;;;;5013910;28;20197;-73
2021/01/03 08:04:32;;;;;;;44.70;16.80;;;4.70;99.90;;;;;;5014703;28;20312;-71
2021/01/03 08:07:16;;;;;;;37.63;16.17;;;4.70;99.90;;;;;;5015411;28;20246;-71
2021/01/03 08:09:42;;;;;;;34.50;15.10;;;4.70;99.90;;;;;;5045937;28;20512;-70
2021/01/03 08:12:30;;;;;;;36.90;15.87;;;4.70;99.90;;;;;;5014499;28;20227;-70
2021/01/03 08:15:18;;;;;;;37.43;15.67;;;4.70;99.90;;;;;;5018760;28;20307;-71
2021/01/03 08:17:45;;;;;;;41.37;17.23;;;4.60;99.90;;;;;;5016569;28;20673;-70
2021/01/03 08:20:23;;;;;;;42.33;15.97;;;4.60;99.90;;;;;;5015862;28;20285;-73
2021/01/03 08:22:50;;;;;;;35.53;14.27;;;4.60;99.90;;;;;;5019033;28;20326;-70
2021/01/03 08:25:20;;;;;;;38.53;15.67;;;4.60;99.90;;;;;;5012471;28;20594;-70
2021/01/03 08:28:04;;;;;;;33.77;15.40;;;4.60;99.90;;;;;;5015456;28;20212;-70
2021/01/03 08:30:34;;;;;;;35.43;14.40;;;4.70;99.90;;;;;;5029005;28;20368;-71
2021/01/03 08:33:26;;;;;;;31.47;15.63;;;4.70;99.90;;;;;;5016612;28;20243;-70
2021/01/03 08:35:53;;;;;;;35.93;14.60;;;4.80;99.90;;;;;;5018548;28;20236;-71
2021/01/03 08:38:26;;;;;;;33.43;14.43;;;4.70;99.90;;;;;;5020611;28;20274;-71
2021/01/03 08:40:53;;;;;;;32.63;14.87;;;4.70;99.90;;;;;;5016194;28;20513;-73
2021/01/03 08:43:29;;;;;;;42.53;15.97;;;4.60;99.90;;;;;;5017378;28;20267;-73
2021/01/03 08:46:03;;;;;;;36.73;15.77;;;4.80;99.90;;;;;;5025985;28;20212;-72
2021/01/03 08:48:30;;;;;;;36.13;15.30;;;4.70;99.90;;;;;;5014527;28;20247;-71
2021/01/03 08:51:08;;;;;;;31.77;14.17;;;4.70;99.90;;;;;;5012838;28;20305;-71
2021/01/03 08:53:36;;;;;;;32.67;15.30;;;4.60;99.90;;;;;;5017343;28;20259;-73
2021/01/03 08:56:10;;;;;;;34.90;15.80;;;4.70;99.90;;;;;;5016248;28;20639;-71
2021/01/03 08:58:39;;;;;;;37.00;16.00;;;4.70;99.90;;;;;;5015460;28;20276;-71
2021/01/03 09:01:25;;;;;;;29.37;14.13;;;4.80;99.90;;;;;;5018226;28;20303;-71
2021/01/03 09:03:56;;;;;;;32.67;14.80;;;4.90;99.90;;;;;;5017759;28;20201;-71
2021/01/03 09:06:23;;;;;;;30.50;14.50;;;4.80;99.90;;;;;;5017030;28;20205;-71
2021/01/03 09:08:50;;;;;;;40.37;15.97;;;4.70;99.90;;;;;;5018263;28;20299;-71
2021/01/03 09:11:33;;;;;;;32.07;14.67;;;4.70;99.90;;;;;;5014485;28;20212;-71
2021/01/03 09:14:23;;;;;;;32.83;14.30;;;4.80;99.90;;;;;;5016407;28;20312;-71
2021/01/03 09:16:55;;;;;;;32.50;14.03;;;4.70;99.90;;;;;;5029298;28;20215;-72
2021/01/03 09:19:24;;;;;;;34.17;16.17;;;4.70;99.90;;;;;;5018404;28;20348;-71
2021/01/03 09:21:54;;;;;;;31.70;14.63;;;4.80;99.90;;;;;;5017029;28;20601;-70
2021/01/03 09:24:34;;;;;;;31.17;13.83;;;4.80;99.90;;;;;;5016378;28;21195;-71
2021/01/03 09:27:04;;;;;;;31.70;14.97;;;4.70;99.90;;;;;;5018541;28;20255;-71
2021/01/03 09:29:37;;;;;;;30.53;14.30;;;4.70;99.90;;;;;;5017820;28;20500;-73
2021/01/03 09:32:10;;;;;;;30.17;13.87;;;4.70;99.90;;;;;;5016887;28;20236;-73
2021/01/03 09:34:44;;;;;;;26.70;12.27;;;4.70;99.90;;;;;;5017060;28;20614;-72
2021/01/03 09:37:16;;;;;;;28.80;13.70;;;4.60;99.90;;;;;;5018270;28;20253;-72
2021/01/03 09:39:53;;;;;;;29.93;12.13;;;4.70;99.90;;;;;;5022976;28;20204;-72
2021/01/03 09:42:58;;;;;;;26.03;14.30;;;4.70;99.90;;;;;;5035574;28;20701;-72
2021/01/03 09:45:37;;;;;;;30.20;13.60;;;4.80;99.90;;;;;;5022982;28;20234;-74
2021/01/03 09:48:04;;;;;;;30.40;13.63;;;4.90;99.90;;;;;;5035317;28;20579;-73
2021/01/03 09:50:39;;;;;;;28.10;12.93;;;4.80;99.90;;;;;;5013061;28;20259;-71
2021/01/03 09:53:20;;;;;;;22.13;11.57;;;4.70;99.90;;;;;;5023209;28;20250;-72
2021/01/03 09:56:06;;;;;;;24.43;11.73;;;4.80;99.90;;;;;;5019178;28;20204;-74
2021/01/03 09:58:38;;;;;;;26.47;13.33;;;4.70;99.90;;;;;;5016259;28;20278;-73
2021/01/03 10:01:07;;;;;;;24.93;11.10;;;4.90;99.90;;;;;;5013248;28;20232;-74
2021/01/03 10:03:44;;;;;;;27.00;12.13;;;4.80;99.90;;;;;;5016807;28;20250;-70
2021/01/03 10:06:30;;;;;;;26.27;11.17;;;4.80;99.90;;;;;;5014472;28;20207;-70
2021/01/03 10:09:16;;;;;;;22.50;11.40;;;4.70;99.90;;;;;;5025772;28;20966;-72
2021/01/03 10:11:43;;;;;;;23.47;11.63;;;4.70;99.90;;;;;;5018499;28;20286;-73
2021/01/03 10:14:26;;;;;;;19.17;10.43;;;4.70;99.90;;;;;;5015376;28;20230;-72
2021/01/03 10:16:52;;;;;;;22.90;11.30;;;4.90;99.90;;;;;;5015246;28;20298;-71
2021/01/03 10:19:23;;;;;;;21.43;11.10;;;4.80;99.90;;;;;;5010877;28;20247;-71
2021/01/03 10:21:50;;;;;;;19.87;10.90;;;4.80;99.90;;;;;;5012786;28;20201;-71
2021/01/03 10:24:21;;;;;;;18.67;10.03;;;4.70;99.90;;;;;;5007043;28;20326;-71
2021/01/03 10:27:13;;;;;;;22.00;10.40;;;4.80;99.90;;;;;;5018204;28;20313;-71
2021/01/03 10:29:40;;;;;;;25.33;10.60;;;4.90;99.90;;;;;;5011446;28;20244;-71
2021/01/03 10:32:07;;;;;;;25.13;12.17;;;4.80;99.90;;;;;;5027920;28;21281;-71
2021/01/03 10:34:33;;;;;;;21.67;10.73;;;4.90;99.90;;;;;;5011335;28;20282;-71
2021/01/03 10:37:00;;;;;;;23.83;11.07;;;4.80;99.90;;;;;;5028636;28;20529;-71
2021/01/03 10:39:29;;;;;;;18.30;10.17;;;4.80;99.90;;;;;;4996639;28;20271;-71
2021/01/03 10:41:56;;;;;;;18.47;9.00;;;4.80;99.90;;;;;;5012954;28;20216;-71
2021/01/03 10:44:23;;;;;;;18.40;10.77;;;4.90;99.90;;;;;;5012543;28;20244;-71
2021/01/03 10:46:55;;;;;;;18.23;9.13;;;4.70;99.90;;;;;;5014624;28;20686;-71
2021/01/03 10:49:22;;;;;;;15.63;9.37;;;4.80;99.90;;;;;;5013244;28;20204;-71
2021/01/03 10:51:48;;;;;;;16.00;9.43;;;4.80;99.90;;;;;;5026928;28;20279;-72
2021/01/03 10:54:20;;;;;;;14.13;7.37;;;4.90;99.90;;;;;;5010461;28;20215;-72
2021/01/03 10:57:04;;;;;;;20.37;9.40;;;4.90;99.90;;;;;;5022167;28;20220;-72
2021/01/03 10:59:30;;;;;;;14.60;8.73;;;5.00;99.90;;;;;;5011964;28;20233;-71
2021/01/03 11:01:56;;;;;;;16.17;8.37;;;4.90;99.90;;;;;;5009003;28;20196;-72
2021/01/03 11:04:24;;;;;;;17.97;8.57;;;5.00;99.90;;;;;;5013641;28;20414;-72
2021/01/03 11:06:52;;;;;;;16.33;8.10;;;5.10;99.90;;;;;;5009793;28;20682;-71
2021/01/03 11:09:25;;;;;;;16.10;7.40;;;4.90;99.90;;;;;;5011691;28;20208;-72
2021/01/03 11:12:17;;;;;;;14.63;7.67;;;4.90;99.90;;;;;;5009438;28;20205;-71
2021/01/03 11:14:45;;;;;;;14.77;7.77;;;4.90;99.90;;;;;;5010130;28;20356;-71
2021/01/03 11:17:14;;;;;;;13.17;7.40;;;4.90;99.90;;;;;;5010630;28;20696;-73
2021/01/03 11:19:40;;;;;;;14.13;7.60;;;4.90;99.90;;;;;;5020890;28;20224;-71
2021/01/03 11:22:11;;;;;;;15.07;7.57;;;4.90;99.90;;;;;;5006109;28;20232;-72
2021/01/03 11:24:38;;;;;;;13.50;6.93;;;4.90;99.90;;;;;;5007022;28;20205;-71
2021/01/03 11:27:07;;;;;;;14.53;6.80;;;5.10;99.90;;;;;;5008230;28;20921;-71
2021/01/03 11:29:50;;;;;;;12.97;6.67;;;4.90;99.90;;;;;;5008227;28;20205;-71
2021/01/03 11:32:21;;;;;;;10.87;6.57;;;4.90;99.90;;;;;;5009560;28;20590;-71
2021/01/03 11:34:47;;;;;;;12.60;6.60;;;5.00;99.90;;;;;;5007369;28;20830;-72
2021/01/03 11:37:20;;;;;;;11.57;6.40;;;5.00;99.90;;;;;;5043222;28;20196;-73
2021/01/03 11:39:47;;;;;;;12.30;5.97;;;5.00;99.90;;;;;;5011406;28;20686;-73
2021/01/03 11:42:22;;;;;;;8.27;4.90;;;5.00;99.90;;;;;;5025551;28;20325;-73
2021/01/03 11:44:50;;;;;;;11.93;6.10;;;4.90;99.90;;;;;;5010557;28;20283;-73
2021/01/03 11:47:19;;;;;;;9.33;5.47;;;5.00;99.90;;;;;;5014968;28;20300;-72
2021/01/03 11:49:46;;;;;;;10.23;6.17;;;5.00;99.90;;;;;;5013577;28;20284;-72
2021/01/03 11:52:30;;;;;;;8.83;5.07;;;5.10;99.90;;;;;;5012892;28;20201;-73
2021/01/03 11:54:57;;;;;;;10.50;5.53;;;5.00;99.90;;;;;;5024789;28;20194;-72
2021/01/03 11:57:24;;;;;;;10.53;5.40;;;5.10;99.90;;;;;;5009715;28;20212;-73
2021/01/03 11:59:50;;;;;;;11.00;5.77;;;5.10;99.90;;;;;;5014324;28;20738;-72
2021/01/03 12:02:17;;;;;;;10.83;5.33;;;5.20;99.90;;;;;;4995071;28;20298;-72
2021/01/03 12:04:43;;;;;;;10.60;5.73;;;5.10;99.90;;;;;;5013611;28;20225;-73
2021/01/03 12:07:13;;;;;;;9.60;5.50;;;5.20;99.90;;;;;;5015178;28;20229;-73
2021/01/03 12:09:39;;;;;;;8.17;4.60;;;5.20;99.90;;;;;;5012344;28;20661;-74
2021/01/03 12:12:09;;;;;;;9.50;4.90;;;5.20;99.90;;;;;;5012480;28;20198;-73
2021/01/03 12:14:36;;;;;;;11.13;5.63;;;5.30;99.90;;;;;;5013000;28;20304;-74
2021/01/03 12:17:06;;;;;;;10.57;5.43;;;5.30;99.90;;;;;;5013454;28;20660;-73
2021/01/03 12:19:33;;;;;;;9.50;5.37;;;5.30;99.90;;;;;;5013107;28;20217;-74
2021/01/03 12:22:02;;;;;;;8.50;5.40;;;5.10;99.90;;;;;;5012462;28;20214;-73
2021/01/03 12:24:29;;;;;;;8.87;4.60;;;5.10;99.90;;;;;;5008116;28;20202;-74
2021/01/03 12:26:55;;;;;;;9.97;5.03;;;5.20;99.90;;;;;;5012783;28;20262;-74
2021/01/03 12:29:23;;;;;;;10.07;5.70;;;5.10;99.90;;;;;;4997406;28;20297;-73
2021/01/03 12:31:56;;;;;;;6.97;4.20;;;5.10;99.90;;;;;;5012290;28;22422;-73
2021/01/03 12:34:25;;;;;;;8.20;4.77;;;5.20;99.90;;;;;;5012672;28;20208;-74
2021/01/03 12:36:52;;;;;;;7.80;4.60;;;5.10;99.90;;;;;;5045273;28;20213;-74
2021/01/03 12:39:19;;;;;;;6.87;4.50;;;5.30;99.90;;;;;;5009708;28;20225;-73
2021/01/03 12:41:46;;;;;;;6.87;4.07;;;5.20;99.90;;;;;;5027549;28;20332;-73
2021/01/03 12:44:13;;;;;;;7.90;4.90;;;5.20;99.90;;;;;;5001355;28;20288;-74
2021/01/03 12:46:43;;;;;;;10.53;4.57;;;5.30;99.90;;;;;;5013185;28;20200;-74
2021/01/03 12:49:11;;;;;;;8.20;4.93;;;5.20;99.90;;;;;;5002591;28;20325;-74
2021/01/03 12:51:37;;;;;;;9.17;5.00;;;5.20;99.90;;;;;;5039006;28;20448;-74
2021/01/03 12:54:05;;;;;;;7.47;4.30;;;5.20;99.90;;;;;;5044548;28;20298;-74
2021/01/03 12:56:31;;;;;;;7.83;4.17;;;5.20;99.90;;;;;;5027486;28;20767;-74
2021/01/03 12:59:00;;;;;;;8.33;4.70;;;5.20;99.90;;;;;;5012465;28;20216;-73
2021/01/03 13:01:29;;;;;;;7.13;4.00;;;5.30;99.90;;;;;;5025472;28;20204;-73
2021/01/03 13:03:59;;;;;;;7.27;4.20;;;5.40;99.90;;;;;;5024817;28;20230;-75
2021/01/03 13:06:26;;;;;;;7.70;4.47;;;5.30;99.90;;;;;;5013107;28;20202;-74
2021/01/03 13:08:53;;;;;;;6.47;3.90;;;5.10;99.90;;;;;;5021874;28;20627;-76